Time;durP1;ratioP1;P1;durP2;ratioP2;P2;SDS_P1;SDS_P2;PMS_P1;PMS_P2;Temp;Humidity;BMP_temperature;BMP_pressure;BME280_temperature;BME280_humidity;BME280_pressure;Samples;Min_cycle;Max_cycle;Signal;HPM_P1;HPM_P2
2024/01/10 00:01:27;;;;;;;;;;;;;;;12.07;35.29;102222.81;4214247;28;19920;-54
2024/01/10 00:03:29;;;;;;;;;;;;;;;12.08;35.06;102216.66;4214179;28;19926;-53
2024/01/10 00:05:30;;;;;;;;;;;;;;;12.07;35.08;102216.69;4214273;28;19923;-52
2024/01/10 00:07:32;;;;;;;;;;;;;;;12.06;35.41;102220.22;4214168;28;19923;-53
2024/01/10 00:09:33;;;;;;;;;;;;;;;12.04;35.25;102219.38;4213968;28;19923;-52
2024/01/10 00:11:35;;;;;;;;;;;;;;;12.01;35.26;102217.66;4214213;28;20322;-54
2024/01/10 00:13:37;;;;;;;;;;;;;;;12.00;35.73;102215.06;4212445;28;19927;-55
2024/01/10 00:15:38;;;;;;;;;;;;;;;12.01;35.65;102217.66;4214164;28;20293;-54
2024/01/10 00:17:40;;;;;;;;;;;;;;;12.03;35.33;102207.97;4213946;28;19920;-54
2024/01/10 00:19:41;;;;;;;;;;;;;;;12.06;35.14;102213.16;4213812;28;20090;-53
2024/01/10 00:21:43;;;;;;;;;;;;;;;12.08;35.56;102221.94;4214078;28;19927;-54
2024/01/10 00:23:45;;;;;;;;;;;;;;;12.08;35.01;102216.66;4213693;28;20030;-56
2024/01/10 00:25:46;;;;;;;;;;;;;;;12.08;35.54;102215.78;4212615;28;20386;-53
2024/01/10 00:27:48;;;;;;;;;;;;;;;12.07;35.50;102219.31;4213786;28;19946;-56
2024/01/10 00:29:51;;;;;;;;;;;;;;;12.03;35.00;102217.63;4213912;28;19920;-53
2024/01/10 00:31:53;;;;;;;;;;;;;;;12.00;35.26;102215.06;4213852;28;19919;-55
2024/01/10 00:33:54;;;;;;;;;;;;;;;11.99;35.30;102211.53;4213720;28;19920;-53
2024/01/10 00:35:56;;;;;;;;;;;;;;;11.99;35.38;102206.25;4213814;28;20006;-51
2024/01/10 00:37:57;;;;;;;;;;;;;;;12.03;35.08;102209.72;4213588;28;19924;-54
2024/01/10 00:39:59;;;;;;;;;;;;;;;12.06;35.54;102204.41;4213649;28;19959;-53
2024/01/10 00:42:00;;;;;;;;;;;;;;;12.08;35.16;102202.59;4213642;28;20456;-54
2024/01/10 00:44:02;;;;;;;;;;;;;;;12.09;35.38;102202.56;4213387;28;19920;-52
2024/01/10 00:46:04;;;;;;;;;;;;;;;12.08;35.61;102203.47;4213741;28;20287;-55
2024/01/10 00:48:06;;;;;;;;;;;;;;;12.08;35.23;102203.47;4213709;28;19927;-53
2024/01/10 00:50:12;;;;;;;;;;;;;;;12.06;35.10;102201.75;4213720;28;19920;-54
2024/01/10 00:52:14;;;;;;;;;;;;;;;12.03;35.36;102205.31;4213612;28;19927;-55
2024/01/10 00:54:16;;;;;;;;;;;;;;;12.03;35.59;102201.81;4213648;28;19923;-50
2024/01/10 00:56:18;;;;;;;;;;;;;;;12.03;35.44;102199.16;4213552;28;19940;-55
2024/01/10 00:58:19;;;;;;;;;;;;;;;12.06;35.62;102191.22;4213283;28;19920;-54
2024/01/10 01:00:21;;;;;;;;;;;;;;;12.09;35.53;102197.31;4213287;28;20024;-54
2024/01/10 01:02:22;;;;;;;;;;;;;;;12.12;35.55;102186.69;4213827;28;19942;-49
2024/01/10 01:04:24;;;;;;;;;;;;;;;12.15;35.39;102185.75;4213281;28;19927;-50
2024/01/10 01:06:25;;;;;;;;;;;;;;;12.16;35.40;102184.00;4213686;28;19943;-53
2024/01/10 01:08:27;;;;;;;;;;;;;;;12.13;35.31;102193.69;4213704;28;20402;-53
2024/01/10 01:10:29;;;;;;;;;;;;;;;12.12;34.98;102184.03;4213724;28;20523;-54
2024/01/10 01:12:30;;;;;;;;;;;;;;;12.10;35.45;102182.34;4213217;28;20405;-53
2024/01/10 01:14:32;;;;;;;;;;;;;;;12.08;35.17;102185.00;4213411;28;19969;-53
2024/01/10 01:16:33;;;;;;;;;;;;;;;12.07;35.68;102178.00;4213609;28;19924;-52
2024/01/10 01:18:35;;;;;;;;;;;;;;;12.09;35.14;102180.59;4212317;28;19924;-54
2024/01/10 01:20:37;;;;;;;;;;;;;;;12.12;35.37;102180.53;4212222;28;19938;-54
2024/01/10 01:22:38;;;;;;;;;;;;;;;12.16;35.42;102186.63;4213551;28;19942;-51
2024/01/10 01:24:40;;;;;;;;;;;;;;;12.18;35.35;102179.56;4213486;28;19966;-51
2024/01/10 01:26:41;;;;;;;;;;;;;;;12.18;35.27;102177.78;4213229;28;19966;-55
2024/01/10 01:28:43;;;;;;;;;;;;;;;12.18;35.41;102185.72;4213348;28;19950;-54
2024/01/10 01:30:44;;;;;;;;;;;;;;;12.13;35.13;102177.03;4213100;28;19966;-53
2024/01/10 01:32:46;;;;;;;;;;;;;;;12.10;35.12;102174.41;4212214;28;19924;-56
2024/01/10 01:34:48;;;;;;;;;;;;;;;12.09;35.50;102172.69;4213170;28;19932;-51
2024/01/10 01:36:51;;;;;;;;;;;;;;;12.09;35.26;102177.94;4213473;28;19920;-54
2024/01/10 01:38:52;;;;;;;;;;;;;;;12.11;35.39;102176.16;4213345;28;20011;-52
2024/01/10 01:40:54;;;;;;;;;;;;;;;12.14;35.15;102178.75;4212780;28;19920;-55
2024/01/10 01:42:56;;;;;;;;;;;;;;;12.15;35.14;102177.84;4213271;28;19924;-53
2024/01/10 01:44:57;;;;;;;;;;;;;;;12.17;35.40;102183.09;4213390;28;19920;-53
2024/01/10 01:46:59;;;;;;;;;;;;;;;12.17;35.16;102183.09;4213103;28;20302;-54
2024/01/10 01:49:00;;;;;;;;;;;;;;;12.17;35.13;102183.97;4213239;28;19923;-55
2024/01/10 01:51:04;;;;;;;;;;;;;;;12.16;35.02;102179.56;4213160;28;19985;-54
2024/01/10 01:53:06;;;;;;;;;;;;;;;12.14;35.05;102184.03;4215917;28;20014;-54
2024/01/10 01:55:08;;;;;;;;;;;;;;;12.13;35.37;102179.66;4215841;28;20014;-54
2024/01/10 01:57:09;;;;;;;;;;;;;;;12.14;35.25;102181.41;4216081;28;19923;-55
2024/01/10 01:59:11;;;;;;;;;;;;;;;12.14;35.40;102189.31;4216002;28;19920;-51
2024/01/10 02:01:13;;;;;;;;;;;;;;;12.14;35.15;102179.63;4216255;28;19971;-53
2024/01/10 02:03:15;;;;;;;;;;;;;;;12.18;35.13;102183.06;4216246;28;19924;-53
2024/01/10 02:05:17;;;;;;;;;;;;;;;12.20;35.27;102178.66;4215946;28;19924;-54
2024/01/10 02:07:19;;;;;;;;;;;;;;;12.23;35.01;102185.63;4216020;28;20353;-53
2024/01/10 02:09:20;;;;;;;;;;;;;;;12.23;34.99;102178.56;4215704;28;19964;-54
2024/01/10 02:11:22;;;;;;;;;;;;;;;12.23;35.18;102177.72;4216063;28;20072;-54
2024/01/10 02:13:24;;;;;;;;;;;;;;;12.21;35.04;102179.50;4216067;28;19920;-54
2024/01/10 02:15:26;;;;;;;;;;;;;;;12.17;35.16;102173.41;4215865;28;19927;-53
2024/01/10 02:17:27;;;;;;;;;;;;;;;12.17;35.28;102175.19;4215732;28;19924;-54
2024/01/10 02:19:31;;;;;;;;;;;;;;;12.17;35.32;102178.69;4215637;28;19924;-56
2024/01/10 02:21:32;;;;;;;;;;;;;;;12.19;35.42;102176.00;4215884;28;20382;-53
2024/01/10 02:23:34;;;;;;;;;;;;;;;12.22;35.09;102175.97;4215781;28;19924;-53
2024/01/10 02:25:35;;;;;;;;;;;;;;;12.25;35.03;102181.19;4214205;28;19999;-55
2024/01/10 02:27:37;;;;;;;;;;;;;;;12.25;35.08;102178.56;4215994;28;19978;-55
2024/01/10 02:29:39;;;;;;;;;;;;;;;12.25;34.83;102182.06;4215834;28;20382;-52
2024/01/10 02:31:41;;;;;;;;;;;;;;;12.24;35.05;102169.75;4215389;28;19920;-55
2024/01/10 02:33:42;;;;;;;;;;;;;;;12.22;35.30;102165.41;4215734;28;19920;-54
2024/01/10 02:35:44;;;;;;;;;;;;;;;12.22;34.74;102168.06;4215357;28;19921;-54
2024/01/10 02:37:52;;;;;;;;;;;;;;;12.20;34.85;102162.81;4215513;28;19927;-55
2024/01/10 02:39:53;;;;;;;;;;;;;;;12.21;35.23;102168.94;4215130;28;19959;-54
2024/01/10 02:41:55;;;;;;;;;;;;;;;12.22;34.99;102173.34;4214274;28;19920;-56
2024/01/10 02:43:58;;;;;;;;;;;;;;;12.24;34.90;102164.47;4215535;28;19928;-53
2024/01/10 02:46:00;;;;;;;;;;;;;;;12.28;34.95;102165.28;4215329;28;19973;-53
2024/01/10 02:48:02;;;;;;;;;;;;;;;12.29;34.94;102161.75;4215302;28;20394;-56
2024/01/10 02:50:04;;;;;;;;;;;;;;;12.30;34.93;102166.16;4215499;28;20426;-53
2024/01/10 02:52:06;;;;;;;;;;;;;;;12.30;35.10;102166.16;4215445;28;19987;-53
2024/01/10 02:54:08;;;;;;;;;;;;;;;12.30;34.94;102155.59;4215318;28;20022;-50
2024/01/10 02:56:09;;;;;;;;;;;;;;;12.28;34.82;102157.38;4215114;28;20035;-52
2024/01/10 02:58:10;;;;;;;;;;;;;;;12.26;35.09;102152.16;4214978;28;20341;-50
2024/01/10 03:00:17;;;;;;;;;;;;;;;12.26;35.09;102154.78;4214781;28;19927;-50
2024/01/10 03:02:18;;;;;;;;;;;;;;;12.27;34.97;102148.63;4215191;28;20390;-53
2024/01/10 03:04:20;;;;;;;;;;;;;;;12.29;35.03;102144.16;4212734;28;19951;-53
2024/01/10 03:06:22;;;;;;;;;;;;;;;12.33;34.89;102150.25;4230635;28;19920;-53
2024/01/10 03:08:23;;;;;;;;;;;;;;;12.34;35.03;102143.22;4213447;28;19919;-53
2024/01/10 03:10:25;;;;;;;;;;;;;;;12.36;35.00;102138.75;4214912;28;19924;-51
2024/01/10 03:12:26;;;;;;;;;;;;;;;12.37;34.88;102146.66;4215151;28;19920;-52
2024/01/10 03:14:28;;;;;;;;;;;;;;;12.29;34.87;102130.97;4214705;28;19937;-52
2024/01/10 03:16:30;;;;;;;;;;;;;;;12.34;35.06;102143.22;4214962;28;19923;-56
2024/01/10 03:18:31;;;;;;;;;;;;;;;12.27;34.83;102151.25;4215079;28;20015;-53
2024/01/10 03:20:33;;;;;;;;;;;;;;;12.23;35.08;102149.56;4214695;28;19958;-55
2024/01/10 03:22:35;;;;;;;;;;;;;;;12.22;34.54;102150.44;4214382;28;19926;-54
2024/01/10 03:24:36;;;;;;;;;;;;;;;12.25;34.74;102146.91;4214650;28;19920;-53
2024/01/10 03:26:38;;;;;;;;;;;;;;;12.29;35.00;102145.94;4214858;28;20386;-55
2024/01/10 03:28:40;;;;;;;;;;;;;;;12.33;34.71;102142.31;4214747;28;20294;-55
2024/01/10 03:30:41;;;;;;;;;;;;;;;12.36;34.77;102133.47;4213302;28;19924;-54
2024/01/10 03:32:43;;;;;;;;;;;;;;;12.37;34.97;102138.75;4214440;28;20337;-54
2024/01/10 03:34:44;;;;;;;;;;;;;;;12.39;34.79;102138.69;4214528;28;20029;-55
2024/01/10 03:36:46;;;;;;;;;;;;;;;12.38;34.92;102142.22;4214217;28;20423;-54
2024/01/10 03:38:48;;;;;;;;;;;;;;;12.36;34.70;102138.75;4214564;28;19924;-54
2024/01/10 03:40:49;;;;;;;;;;;;;;;12.33;34.64;102131.78;4214252;28;19998;-54
2024/01/10 03:42:51;;;;;;;;;;;;;;;12.32;34.67;102135.34;4214456;28;19927;-53
2024/01/10 03:44:52;;;;;;;;;;;;;;;12.36;34.92;102136.13;4213197;28;20019;-55
2024/01/10 03:46:54;;;;;;;;;;;;;;;12.36;34.95;102134.38;4214492;28;19952;-53
2024/01/10 03:48:56;;;;;;;;;;;;;;;12.39;34.68;102136.06;4214209;28;20383;-53
2024/01/10 03:50:57;;;;;;;;;;;;;;;12.40;34.71;102137.81;4213870;28;19920;-48
2024/01/10 03:52:59;;;;;;;;;;;;;;;12.41;34.61;102134.28;4214468;28;20003;-51
2024/01/10 03:55:00;;;;;;;;;;;;;;;12.40;34.64;102130.75;4214338;28;19951;-52
2024/01/10 03:57:02;;;;;;;;;;;;;;;12.41;34.61;102129.84;4213999;28;20006;-52
2024/01/10 03:59:09;;;;;;;;;;;;;;;12.40;34.67;102135.16;4214092;28;19928;-49
2024/01/10 04:01:11;;;;;;;;;;;;;;;12.38;34.73;102134.31;4214154;28;20334;-51
2024/01/10 04:03:12;;;;;;;;;;;;;;;12.37;35.01;102133.47;4214140;28;19928;-54
2024/01/10 04:05:14;;;;;;;;;;;;;;;12.39;34.68;102125.50;4214234;28;20405;-51
2024/01/10 04:07:16;;;;;;;;;;;;;;;12.44;35.04;102136.84;4213948;28;19924;-53
2024/01/10 04:09:17;;;;;;;;;;;;;;;12.46;34.89;102130.63;4214157;28;20384;-49
2024/01/10 04:11:19;;;;;;;;;;;;;;;12.50;34.71;102130.56;4213997;28;20345;-52
2024/01/10 04:13:21;;;;;;;;;;;;;;;12.52;34.56;102121.72;4214041;28;19927;-50
2024/01/10 04:15:22;;;;;;;;;;;;;;;12.52;34.55;102120.84;4213491;28;19965;-50
2024/01/10 04:17:24;;;;;;;;;;;;;;;12.50;34.64;102122.66;4214274;28;19927;-50
2024/01/10 04:19:30;;;;;;;;;;;;;;;12.50;34.88;102120.00;4213916;28;20011;-53
2024/01/10 04:21:32;;;;;;;;;;;;;;;12.45;34.55;102118.34;4213657;28;19920;-53
2024/01/10 04:23:34;;;;;;;;;;;;;;;12.44;34.70;102119.25;4213868;28;19928;-54
2024/01/10 04:25:35;;;;;;;;;;;;;;;12.44;34.77;102119.25;4213882;28;19927;-53
2024/01/10 04:27:37;;;;;;;;;;;;;;;12.47;35.00;102118.31;4213871;28;19920;-51
2024/01/10 04:29:39;;;;;;;;;;;;;;;12.52;34.82;102121.72;4213894;28;19950;-49
2024/01/10 04:31:45;;;;;;;;;;;;;;;12.56;34.83;102118.09;4213789;28;19948;-51
2024/01/10 04:33:47;;;;;;;;;;;;;;;12.56;34.92;102112.81;4213833;28;19924;-54
2024/01/10 04:35:49;;;;;;;;;;;;;;;12.59;34.68;102111.91;4213383;28;20015;-53
2024/01/10 04:37:50;;;;;;;;;;;;;;;12.59;34.79;102114.56;4213577;28;19931;-54
2024/01/10 04:39:52;;;;;;;;;;;;;;;12.57;34.64;102109.28;4213628;28;19969;-49
2024/01/10 04:41:54;;;;;;;;;;;;;;;12.54;34.76;102105.84;4213744;28;19920;-52
2024/01/10 04:43:56;;;;;;;;;;;;;;;12.51;34.93;102112.06;4213696;28;20332;-55
2024/01/10 04:45:57;;;;;;;;;;;;;;;12.47;35.04;102099.84;4212462;28;20353;-50
2024/01/10 04:47:59;;;;;;;;;;;;;;;12.55;34.78;102111.09;4213734;28;20378;-54
2024/01/10 04:50:01;;;;;;;;;;;;;;;12.61;35.03;102110.97;4212171;28;19951;-53
2024/01/10 04:52:03;;;;;;;;;;;;;;;12.63;34.57;102111.78;4213661;28;19942;-53
2024/01/10 04:54:04;;;;;;;;;;;;;;;12.66;34.79;102102.06;4213740;28;19927;-53
2024/01/10 04:56:06;;;;;;;;;;;;;;;12.66;34.56;102100.31;4213382;28;19926;-50
2024/01/10 04:58:08;;;;;;;;;;;;;;;12.65;34.74;102103.84;4213746;28;19928;-55
2024/01/10 05:00:10;;;;;;;;;;;;;;;12.65;34.52;102098.56;4213339;28;20049;-51
2024/01/10 05:02:11;;;;;;;;;;;;;;;12.63;34.89;102092.44;4213706;28;19967;-51
2024/01/10 05:04:13;;;;;;;;;;;;;;;12.61;34.78;102096.88;4213292;28;20000;-52
2024/01/10 05:06:15;;;;;;;;;;;;;;;12.62;34.88;102094.25;4213669;28;20435;-52
2024/01/10 05:08:20;;;;;;;;;;;;;;;12.66;34.70;102102.06;4212031;28;19920;-49
2024/01/10 05:10:22;;;;;;;;;;;;;;;12.68;34.51;102101.13;4212097;28;19965;-54
2024/01/10 05:12:23;;;;;;;;;;;;;;;12.68;34.49;102103.78;4213561;28;19955;-51
2024/01/10 05:14:25;;;;;;;;;;;;;;;12.69;34.68;102102.88;4213396;28;20059;-53
2024/01/10 05:16:26;;;;;;;;;;;;;;;12.67;34.65;102099.38;4213520;28;20015;-53
2024/01/10 05:18:28;;;;;;;;;;;;;;;12.67;34.41;102098.53;4213075;28;20359;-54
2024/01/10 05:20:29;;;;;;;;;;;;;;;12.65;34.59;102103.84;4213416;28;19928;-49
2024/01/10 05:22:31;;;;;;;;;;;;;;;12.62;34.16;102102.16;4213408;28;19924;-51
2024/01/10 05:24:33;;;;;;;;;;;;;;;12.61;34.21;102107.44;4213473;28;19951;-51
2024/01/10 05:26:34;;;;;;;;;;;;;;;12.60;34.40;102103.06;4213639;28;20382;-50
2024/01/10 05:28:36;;;;;;;;;;;;;;;12.62;34.64;102096.00;4216479;28;19920;-50
2024/01/10 05:30:37;;;;;;;;;;;;;;;12.64;34.59;102099.47;4216667;28;19955;-52
2024/01/10 05:32:39;;;;;;;;;;;;;;;12.68;34.48;102101.13;4216179;28;20445;-54
2024/01/10 05:34:41;;;;;;;;;;;;;;;12.70;34.11;102095.84;4216479;28;20399;-50
2024/01/10 05:36:42;;;;;;;;;;;;;;;12.69;34.33;102092.31;4216432;28;19947;-51
2024/01/10 05:38:43;;;;;;;;;;;;;;;12.71;34.24;102094.91;4216233;28;19963;-52
2024/01/10 05:40:45;;;;;;;;;;;;;;;12.70;34.42;102098.47;4216377;28;19919;-52
2024/01/10 05:42:47;;;;;;;;;;;;;;;12.69;34.62;102092.31;4216632;28;20306;-52
2024/01/10 05:44:52;;;;;;;;;;;;;;;12.68;34.48;102097.63;4216490;28;19942;-54
2024/01/10 05:46:53;;;;;;;;;;;;;;;12.66;34.64;102100.31;4215942;28;19927;-53
2024/01/10 05:48:55;;;;;;;;;;;;;;;12.66;34.55;102099.44;4216390;28;20353;-55
2024/01/10 05:50:57;;;;;;;;;;;;;;;12.67;34.58;102093.25;4216235;28;20371;-54
2024/01/10 05:52:58;;;;;;;;;;;;;;;12.70;34.46;102099.34;4215081;28;19943;-56
2024/01/10 05:55:02;;;;;;;;;;;;;;;12.72;34.87;102094.91;4216247;28;19962;-52
2024/01/10 05:57:04;;;;;;;;;;;;;;;12.74;34.54;102097.50;4216164;28;19924;-55
2024/01/10 05:59:05;;;;;;;;;;;;;;;12.75;34.20;102086.03;4215968;28;20355;-53
2024/01/10 06:01:09;;;;;;;;;;;;;;;12.76;34.47;102086.00;4215983;28;19973;-54
2024/01/10 06:03:12;;;;;;;;;;;;;;;12.76;34.44;102086.00;4215680;28;20338;-54
2024/01/10 06:05:13;;;;;;;;;;;;;;;12.75;34.29;102080.75;4216005;28;20098;-54
2024/01/10 06:07:15;;;;;;;;;;;;;;;12.72;34.29;102083.47;4216217;28;19959;-54
2024/01/10 06:09:21;;;;;;;;;;;;;;;12.72;34.46;102088.72;4216001;28;20545;-57
2024/01/10 06:11:23;;;;;;;;;;;;;;;12.74;34.08;102085.16;4215733;28;20023;-55
2024/01/10 06:13:25;;;;;;;;;;;;;;;12.77;34.23;102092.13;4215991;28;20001;-55
2024/01/10 06:15:30;;;;;;;;;;;;;;;12.80;34.16;102088.59;4215970;28;19953;-54
2024/01/10 06:17:32;;;;;;;;;;;;;;;12.80;34.24;102093.88;4215728;28;19998;-55
2024/01/10 06:19:34;;;;;;;;;;;;;;;12.80;34.11;102089.44;4215777;28;19924;-54
2024/01/10 06:21:35;;;;;;;;;;;;;;;12.79;34.02;102092.97;4215570;28;19930;-52
2024/01/10 06:23:37;;;;;;;;;;;;;;;12.78;33.97;102085.94;4215705;28;20337;-55
2024/01/10 06:25:38;;;;;;;;;;;;;;;12.76;34.00;102087.78;4215803;28;19985;-54
2024/01/10 06:27:40;;;;;;;;;;;;;;;12.74;34.18;102084.31;4215738;28;19924;-53
2024/01/10 06:29:41;;;;;;;;;;;;;;;12.73;34.35;102083.41;4215679;28;19927;-55
2024/01/10 06:31:43;;;;;;;;;;;;;;;12.73;34.21;102080.78;4215319;28;19920;-53
2024/01/10 06:33:45;;;;;;;;;;;;;;;12.75;33.73;102078.13;4215559;28;19920;-53
2024/01/10 06:35:46;;;;;;;;;;;;;;;12.76;34.12;102082.50;4215585;28;19920;-55
2024/01/10 06:37:48;;;;;;;;;;;;;;;12.77;33.90;102073.66;4215152;28;20294;-54
2024/01/10 06:39:49;;;;;;;;;;;;;;;12.76;34.00;102083.34;4215369;28;20015;-56
2024/01/10 06:41:51;;;;;;;;;;;;;;;12.74;33.98;102082.50;4215157;28;19920;-54
2024/01/10 06:43:53;;;;;;;;;;;;;;;12.70;33.80;102077.38;4215433;28;19920;-53
2024/01/10 06:45:55;;;;;;;;;;;;;;;12.67;33.54;102077.41;4215248;28;19920;-55
2024/01/10 06:47:56;;;;;;;;;;;;;;;12.65;33.76;102081.84;4215442;28;19919;-50
2024/01/10 06:49:58;;;;;;;;;;;;;;;12.66;33.83;102078.31;4215479;28;20386;-53
2024/01/10 06:52:00;;;;;;;;;;;;;;;12.67;33.87;102086.19;4215300;28;19919;-55
2024/01/10 06:54:05;;;;;;;;;;;;;;;12.71;33.85;102079.06;4215213;28;19920;-54
2024/01/10 06:56:07;;;;;;;;;;;;;;;12.74;34.02;102082.50;4215190;28;19963;-50
2024/01/10 06:58:09;;;;;;;;;;;;;;;12.77;33.37;102078.94;4215223;28;20037;-51
2024/01/10 07:00:11;;;;;;;;;;;;;;;12.78;33.75;102083.31;4214857;28;19941;-51
2024/01/10 07:02:13;;;;;;;;;;;;;;;12.75;33.45;102084.25;4215212;28;19982;-53
2024/01/10 07:04:15;;;;;;;;;;;;;;;12.74;33.40;102086.94;4215224;28;19924;-54
2024/01/10 07:06:21;;;;;;;;;;;;;;;12.71;33.56;102085.25;4215269;28;19930;-53
2024/01/10 07:08:22;;;;;;;;;;;;;;;12.69;33.79;102092.31;4214919;28;19920;-52
2024/01/10 07:10:28;;;;;;;;;;;;;;;12.69;33.72;102081.75;4215192;28;19984;-55
2024/01/10 07:12:29;;;;;;;;;;;;;;;12.71;33.65;102095.81;4215089;28;19966;-52
2024/01/10 07:14:31;;;;;;;;;;;;;;;12.74;33.68;102089.56;4214836;28;20042;-53
2024/01/10 07:16:32;;;;;;;;;;;;;;;12.77;33.58;102092.13;4214709;28;19920;-52
2024/01/10 07:18:37;;;;;;;;;;;;;;;12.78;33.60;102091.22;4215072;28;19946;-54
2024/01/10 07:20:39;;;;;;;;;;;;;;;12.80;33.42;102089.44;4214802;28;20363;-57
2024/01/10 07:22:46;;;;;;;;;;;;;;;12.81;33.32;102090.28;4214752;28;19958;-56
2024/01/10 07:24:48;;;;;;;;;;;;;;;12.81;33.43;102090.28;4214621;28;20014;-53
2024/01/10 07:26:51;;;;;;;;;;;;;;;12.79;33.23;102098.25;4214887;28;19924;-51
2024/01/10 07:28:52;;;;;;;;;;;;;;;12.77;33.19;102089.50;4214352;28;20012;-51
2024/01/10 07:30:54;;;;;;;;;;;;;;;12.75;33.47;102093.97;4214761;28;19981;-50
2024/01/10 07:32:56;;;;;;;;;;;;;;;12.76;33.61;102099.19;4214744;28;19959;-52
2024/01/10 07:34:58;;;;;;;;;;;;;;;12.81;33.63;102100.84;4214728;28;20036;-53
2024/01/10 07:36:59;;;;;;;;;;;;;;;12.82;33.63;102092.91;4213398;28;20010;-52
2024/01/10 07:39:01;;;;;;;;;;;;;;;12.86;33.55;102101.63;4214418;28;19970;-52
2024/01/10 07:41:05;;;;;;;;;;;;;;;12.87;33.35;102101.59;4214555;28;19927;-53
2024/01/10 07:43:06;;;;;;;;;;;;;;;12.90;33.40;102105.94;4214186;28;19950;-53
2024/01/10 07:45:08;;;;;;;;;;;;;;;12.87;33.85;102103.38;4214226;28;19935;-54
2024/01/10 07:47:10;;;;;;;;;;;;;;;12.85;33.45;102099.91;4214454;28;20371;-55
2024/01/10 07:49:12;;;;;;;;;;;;;;;12.82;33.26;102103.47;4213861;28;19943;-56
2024/01/10 07:51:13;;;;;;;;;;;;;;;12.81;33.42;102104.38;4214431;28;19923;-54
2024/01/10 07:53:15;;;;;;;;;;;;;;;12.82;33.37;102113.16;4214131;28;20030;-56
2024/01/10 07:55:16;;;;;;;;;;;;;;;12.82;33.77;102107.88;4214267;28;19919;-51
2024/01/10 07:57:19;;;;;;;;;;;;;;;12.85;33.20;102107.81;4214250;28;19958;-54
2024/01/10 07:59:20;;;;;;;;;;;;;;;12.87;33.35;102106.03;4214296;28;20412;-55
2024/01/10 08:01:22;;;;;;;;;;;;;;;12.88;33.04;102110.38;4214062;28;19953;-51
2024/01/10 08:03:23;;;;;;;;;;;;;;;12.89;33.27;102109.47;4214095;28;19920;-53
2024/01/10 08:05:25;;;;;;;;;;;;;;;12.87;33.07;102114.78;4214438;28;19931;-53
2024/01/10 08:07:27;;;;;;;;;;;;;;;12.86;33.40;102113.06;4214033;28;19923;-56
2024/01/10 08:09:28;;;;;;;;;;;;;;;12.83;33.07;102112.25;4213990;28;20352;-54
2024/01/10 08:11:35;;;;;;;;;;;;;;;12.83;33.24;102114.91;4214113;28;19930;-54
2024/01/10 08:13:36;;;;;;;;;;;;;;;12.83;33.30;102118.41;4213729;28;20339;-55
2024/01/10 08:15:38;;;;;;;;;;;;;;;12.85;33.70;102113.09;4214205;28;20373;-52
2024/01/10 08:17:40;;;;;;;;;;;;;;;12.89;33.27;102117.41;4212977;28;19919;-54
2024/01/10 08:19:42;;;;;;;;;;;;;;;12.92;33.33;102112.91;4214029;28;19946;-52
2024/01/10 08:21:48;;;;;;;;;;;;;;;12.95;33.66;102119.88;4213775;28;19920;-53
2024/01/10 08:23:50;;;;;;;;;;;;;;;12.94;33.66;102116.41;4214058;28;19951;-51
2024/01/10 08:25:51;;;;;;;;;;;;;;;12.91;33.90;102124.38;4214130;28;20160;-53
2024/01/10 08:27:55;;;;;;;;;;;;;;;12.93;33.73;102124.34;4213652;28;19924;-53
2024/01/10 08:29:56;;;;;;;;;;;;;;;12.92;33.42;102122.63;4214003;28;19920;-53
2024/01/10 08:31:58;;;;;;;;;;;;;;;12.89;33.63;102134.13;4213958;28;19920;-53
2024/01/10 08:33:59;;;;;;;;;;;;;;;12.89;33.51;102131.47;4213947;28;19920;-54
2024/01/10 08:36:06;;;;;;;;;;;;;;;13.04;33.01;102132.03;4213818;28;20383;-56
2024/01/10 08:38:12;;;;;;;;;;;;;;;13.10;32.98;102129.25;4213971;28;19920;-53
2024/01/10 08:40:15;;;;;;;;;;;;;;;13.15;32.79;102121.19;4213848;28;19955;-52
2024/01/10 08:42:17;;;;;;;;;;;;;;;13.22;32.66;102123.66;4213493;28;19989;-55
2024/01/10 08:44:18;;;;;;;;;;;;;;;13.25;32.71;102130.66;4213851;28;19984;-55
2024/01/10 08:46:20;;;;;;;;;;;;;;;13.27;32.88;102126.22;4211679;28;19966;-55
2024/01/10 08:48:22;;;;;;;;;;;;;;;13.28;32.66;102127.94;4180511;28;19932;-53
2024/01/10 08:50:24;;;;;;;;;;;;;;;13.30;32.51;102134.03;4180299;28;19920;-56
2024/01/10 08:52:25;;;;;;;;;;;;;;;13.31;32.48;102127.84;4180443;28;20435;-60
2024/01/10 08:54:27;;;;;;;;;;;;;;;13.33;32.61;102125.16;4191469;28;19928;-63
2024/01/10 08:56:29;;;;;;;;;;;;;;;13.38;32.63;102132.13;4206926;28;19920;-49
2024/01/10 08:58:31;;;;;;;;;;;;;;;13.47;32.81;102128.38;4213019;28;19924;-53
2024/01/10 09:00:32;;;;;;;;;;;;;;;13.50;32.66;102133.59;4195585;28;19928;-56
2024/01/10 09:02:36;;;;;;;;;;;;;;;13.53;32.77;102135.28;4198367;28;19928;-59
2024/01/10 09:04:38;;;;;;;;;;;;;;;13.55;32.83;102131.69;4199623;28;20453;-57
2024/01/10 09:06:40;;;;;;;;;;;;;;;13.57;32.55;102142.22;4199578;28;20345;-56
2024/01/10 09:08:42;;;;;;;;;;;;;;;13.60;33.02;102136.00;4199843;28;19978;-52
2024/01/10 09:10:43;;;;;;;;;;;;;;;13.64;34.57;102130.59;4198159;28;20326;-58
2024/01/10 09:12:46;;;;;;;;;;;;;;;13.70;33.99;102141.00;4198348;28;19971;-58
2024/01/10 09:14:48;;;;;;;;;;;;;;;13.74;35.79;102147.97;4197057;28;19943;-58
2024/01/10 09:16:49;;;;;;;;;;;;;;;13.88;35.91;102141.44;4196518;28;19920;-56
2024/01/10 09:18:53;;;;;;;;;;;;;;;14.08;37.17;102140.03;4197681;28;19921;-53
2024/01/10 09:20:55;;;;;;;;;;;;;;;14.18;36.14;102139.75;4196975;28;19999;-57
2024/01/10 09:23:00;;;;;;;;;;;;;;;14.27;34.86;102143.03;4198716;28;20065;-57
2024/01/10 09:25:04;;;;;;;;;;;;;;;14.21;35.57;102144.94;4199144;28;19959;-54
2024/01/10 09:27:07;;;;;;;;;;;;;;;14.15;32.91;102145.09;4196943;28;20392;-57
2024/01/10 09:29:09;;;;;;;;;;;;;;;14.00;32.27;102143.75;4199233;28;19921;-56
2024/01/10 09:31:11;;;;;;;;;;;;;;;13.93;32.14;102147.47;4198106;28;19968;-58
2024/01/10 09:33:12;;;;;;;;;;;;;;;13.87;31.83;102142.34;4198575;28;19974;-58
2024/01/10 09:35:15;;;;;;;;;;;;;;;13.81;31.69;102148.66;4198724;28;19920;-55
2024/01/10 09:37:17;;;;;;;;;;;;;;;13.76;31.90;102147.06;4199065;28;19924;-57
2024/01/10 09:39:18;;;;;;;;;;;;;;;13.76;31.64;102155.00;4199047;28;19931;-57
2024/01/10 09:41:20;;;;;;;;;;;;;;;13.77;31.65;102143.47;4208610;28;20267;-57
2024/01/10 09:43:21;;;;;;;;;;;;;;;13.76;31.75;102152.34;4199142;28;19978;-55
2024/01/10 09:45:24;;;;;;;;;;;;;;;13.68;32.10;102148.13;4199272;28;20296;-57
2024/01/10 09:47:26;;;;;;;;;;;;;;;13.61;31.92;102153.59;4197049;28;19928;-57
2024/01/10 09:49:28;;;;;;;;;;;;;;;13.58;32.35;102150.13;4197414;28;19974;-53
2024/01/10 09:51:31;;;;;;;;;;;;;;;13.55;32.35;102152.84;4198066;28;20011;-53
2024/01/10 09:53:35;;;;;;;;;;;;;;;13.53;32.52;102156.44;4197991;28;20306;-61
2024/01/10 09:55:37;;;;;;;;;;;;;;;13.47;31.82;102152.16;4203555;28;20414;-62
2024/01/10 09:57:40;;;;;;;;;;;;;;;13.46;31.92;102157.50;4200555;28;19921;-59
2024/01/10 09:59:43;;;;;;;;;;;;;;;13.42;31.83;102156.69;4198440;28;20421;-60
2024/01/10 10:01:45;;;;;;;;;;;;;;;13.38;31.59;102161.19;4197913;28;19933;-59
2024/01/10 10:03:48;;;;;;;;;;;;;;;13.34;31.28;102163.91;4198642;28;19927;-61
2024/01/10 10:05:50;;;;;;;;;;;;;;;13.35;31.01;102152.44;4196149;28;19924;-59
2024/01/10 10:07:55;;;;;;;;;;;;;;;13.40;30.77;102153.22;4196855;28;19974;-59
2024/01/10 10:09:57;;;;;;;;;;;;;;;13.31;30.64;102143.72;4197355;28;20027;-60
2024/01/10 10:11:59;;;;;;;;;;;;;;;13.29;31.04;102160.50;4194470;28;19964;-66
2024/01/10 10:14:13;;;;;;;;;;;;;;;13.26;31.28;102158.81;4197698;28;19921;-63
2024/01/10 10:16:22;;;;;;;;;;;;;;;13.23;30.95;102157.13;4196215;28;19924;-62
2024/01/10 10:18:24;;;;;;;;;;;;;;;13.19;31.49;102152.78;4197082;28;19968;-62
2024/01/10 10:20:37;;;;;;;;;;;;;;;13.20;31.11;102151.88;4196410;28;19928;-63
2024/01/10 10:22:39;;;;;;;;;;;;;;;13.29;30.82;102153.44;4190432;28;20307;-61
2024/01/10 10:24:41;;;;;;;;;;;;;;;13.39;30.55;102149.72;4197107;28;19920;-61
2024/01/10 10:26:42;;;;;;;;;;;;;;;13.46;30.46;102136.34;4192431;28;19924;-62